YTEF

Details ICAO YTEF (TEF)
Name Telfer
Region Australia
Timezone Australia/Perth (UTC+8.0)
Plans Departing 1
Arriving 1
Stats Elevation 970 ft / 296 m (AMSL)
Location -21.715195° 122.230201°
Runways 1
Magnetic Variation 1.817° E
Sunrise 2017-12-16 21:04:50 UTC / 2017-12-17 05:04:50 Local
Sunset 2017-12-17 10:31:59 UTC / 2017-12-17 18:31:59 Local
Advertisement - Login to hide

Runways

ID Width Length Bearing (true) Bearing (mag) Surface Threshold Offset Overrun Length
12 98 ft / 30 m 6,559 ft / 1,999 m 121.60° 119.78° Asphalt 0 ft / 0 m 0 ft / 0 m
30 98 ft / 30 m 6,559 ft / 1,999 m 301.60° 299.78° Asphalt 0 ft / 0 m 0 ft / 0 m

Map

Weather


0- 5 10 15 20 25 30 35+ Temperature / ° C

Clouds and Precipitation
Forecast for 2017-12-17 00:00 UTC. Updated an hour ago

Ground ~20,000 ft ~40,000 ft Winds

METAR

YTEF 162000Z AUTO 30007KT 9999 // NCD 27/20 Q1005

TAF

Not found

Frequencies

Unicom 126.70 MHz UNICOM
Warning: Do not use this data for real-world aviation or navigation. No guarantee of current accuracy is given.